Time;durP1;ratioP1;P1;durP2;ratioP2;P2;SDS_P1;SDS_P2;PMS_P1;PMS_P2;Temp;Humidity;BMP_temperature;BMP_pressure;BME280_temperature;BME280_humidity;BME280_pressure;Samples;Min_cycle;Max_cycle;Signal;HPM_P1;HPM_P2
2021/10/19 00:01:20;;;;;;;4.22;3.05;;;8.00;99.90;;;;;;6105722;29;20028;-84
2021/10/19 00:04:23;;;;;;;4.13;3.22;;;;;;;;;;6107469;29;20163;-84
2021/10/19 00:07:24;;;;;;;5.55;3.58;;;8.10;99.90;;;;;;6107863;29;20672;-84
2021/10/19 00:10:25;;;;;;;3.90;3.30;;;;;;;;;;6104092;29;20056;-84
2021/10/19 00:13:26;;;;;;;4.18;3.50;;;;;;;;;;6100762;29;20475;-84
2021/10/19 00:16:27;;;;;;;3.88;3.25;;;8.00;99.90;;;;;;6100807;29;20031;-85
2021/10/19 00:19:28;;;;;;;3.85;3.17;;;;;;;;;;6089129;29;20082;-84
2021/10/19 00:22:29;;;;;;;4.13;3.55;;;;;;;;;;6123713;29;20032;-84
2021/10/19 00:25:29;;;;;;;4.22;3.40;;;8.50;99.90;;;;;;6122797;29;20389;-84
2021/10/19 00:28:31;;;;;;;5.43;3.35;;;;;;;;;;6123323;29;20028;-84
2021/10/19 00:31:31;;;;;;;3.65;2.80;;;8.70;99.90;;;;;;6122969;29;20482;-84
2021/10/19 00:34:32;;;;;;;2.75;2.40;;;8.80;99.90;;;;;;6122975;29;20027;-84
2021/10/19 00:37:33;;;;;;;3.97;2.72;;;;;;;;;;6122513;29;20031;-84
2021/10/19 00:40:35;;;;;;;4.50;3.10;;;;;;;;;;6106823;29;20027;-84
2021/10/19 00:43:36;;;;;;;4.18;2.78;;;;;;;;;;6117125;29;20030;-84
2021/10/19 00:46:40;;;;;;;3.42;2.85;;;8.80;99.90;;;;;;6084512;29;20087;-84
2021/10/19 00:49:40;;;;;;;3.90;3.08;;;8.80;99.90;;;;;;6084444;29;20090;-84
2021/10/19 00:52:42;;;;;;;4.10;2.95;;;;;;;;;;6100049;29;20470;-83
2021/10/19 00:55:42;;;;;;;3.65;3.22;;;8.60;99.90;;;;;;6104187;29;20032;-83
2021/10/19 00:58:43;;;;;;;4.10;3.20;;;;;;;;;;6121976;29;20043;-84
2021/10/19 01:01:44;;;;;;;4.05;3.55;;;;;;;;;;6123673;29;20393;-84
2021/10/19 01:04:45;;;;;;;4.03;3.33;;;;;;;;;;6114408;29;20111;-84
2021/10/19 01:07:47;;;;;;;3.72;3.17;;;8.50;99.90;;;;;;6100889;29;20095;-82
2021/10/19 01:10:48;;;;;;;3.22;2.60;;;;;;;;;;6083206;29;20805;-83
2021/10/19 01:13:49;;;;;;;3.47;2.55;;;;;;;;;;6099467;29;20036;-83
2021/10/19 01:16:50;;;;;;;2.70;2.42;;;8.70;99.90;;;;;;6098608;29;20071;-84
2021/10/19 01:19:51;;;;;;;2.92;2.58;;;;;;;;;;6099224;29;20482;-83
2021/10/19 01:22:52;;;;;;;4.93;3.75;;;8.80;99.90;;;;;;6083854;29;20087;-83
2021/10/19 01:25:53;;;;;;;3.87;2.90;;;;;;;;;;6098976;29;20039;-83
2021/10/19 01:28:54;;;;;;;4.78;3.15;;;9.00;99.90;;;;;;6083301;29;20156;-83
2021/10/19 01:31:55;;;;;;;3.97;2.63;;;;;;;;;;6104023;29;20423;-83
2021/10/19 01:34:56;;;;;;;5.05;3.58;;;8.90;99.90;;;;;;6121753;29;20024;-83
2021/10/19 01:37:57;;;;;;;3.15;2.45;;;;;;;;;;6121286;29;20127;-83
2021/10/19 01:40:58;;;;;;;3.63;2.63;;;;;;;;;;6121452;29;20059;-83
2021/10/19 01:43:59;;;;;;;3.22;2.70;;;9.00;99.90;;;;;;6121177;29;20044;-83
2021/10/19 01:47:00;;;;;;;4.85;2.90;;;;;;;;;;6107978;29;20111;-85
2021/10/19 01:50:00;;;;;;;3.72;2.80;;;;;;;;;;6120731;29;20034;-83
2021/10/19 01:53:01;;;;;;;2.88;2.58;;;;;;;;;;6105380;29;20035;-84
2021/10/19 01:56:02;;;;;;;4.05;2.72;;;9.30;99.90;;;;;;6101129;29;20024;-84
2021/10/19 01:59:03;;;;;;;3.88;2.80;;;;;;;;;;6095250;29;20039;-83
2021/10/19 02:02:04;;;;;;;3.67;2.90;;;;;;;;;;6121058;29;20024;-84
2021/10/19 02:05:05;;;;;;;3.53;2.80;;;;;;;;;;6120809;29;20041;-84
2021/10/19 02:08:06;;;;;;;3.30;2.70;;;;;;;;;;6121222;29;20027;-85
2021/10/19 02:11:07;;;;;;;3.38;2.67;;;9.30;99.90;;;;;;6097608;29;20068;-84
2021/10/19 02:14:08;;;;;;;3.38;2.75;;;;;;;;;;6082749;29;20039;-84
2021/10/19 02:17:09;;;;;;;4.95;2.80;;;;;;;;;;6082653;29;20024;-84
2021/10/19 02:20:10;;;;;;;3.08;2.42;;;;;;;;;;6082486;29;20051;-83
2021/10/19 02:23:11;;;;;;;3.85;2.80;;;9.60;99.90;;;;;;6098227;29;20394;-84
2021/10/19 02:26:12;;;;;;;3.53;2.90;;;;;;;;;;6082222;29;20035;-84
2021/10/19 02:29:14;;;;;;;3.97;3.00;;;9.60;99.90;;;;;;6102664;29;20028;-84
2021/10/19 02:32:14;;;;;;;3.05;2.42;;;9.80;99.90;;;;;;6120258;29;20059;-84
2021/10/19 02:35:16;;;;;;;3.58;2.78;;;9.70;99.90;;;;;;6105050;29;20032;-86
2021/10/19 02:38:16;;;;;;;6.57;2.80;;;9.50;99.90;;;;;;6104570;29;20087;-84
2021/10/19 02:41:17;;;;;;;3.45;3.03;;;;;;;;;;6107884;29;20111;-85
2021/10/19 02:44:18;;;;;;;4.07;2.90;;;10.10;99.90;;;;;;6082904;29;20033;-85
2021/10/19 02:47:19;;;;;;;2.83;2.55;;;;;;;;;;6102563;29;20047;-84
2021/10/19 02:50:20;;;;;;;5.43;2.80;;;;;;;;;;6086905;29;20051;-84
2021/10/19 02:53:20;;;;;;;3.58;2.70;;;10.10;99.90;;;;;;6102211;29;20036;-85
2021/10/19 02:56:21;;;;;;;3.67;2.85;;;;;;;;;;6102391;29;20435;-84
2021/10/19 02:59:22;;;;;;;2.63;2.28;;;10.30;99.90;;;;;;6102289;29;20051;-85
2021/10/19 03:02:23;;;;;;;3.35;2.90;;;;;;;;;;6120809;29;20470;-84
2021/10/19 03:05:24;;;;;;;4.78;2.60;;;;;;;;;;6096362;29;20035;-84
2021/10/19 03:08:25;;;;;;;2.80;2.50;;;;;;;;;;6103556;29;20036;-85
2021/10/19 03:11:26;;;;;;;4.90;3.08;;;;;;;;;;6087424;29;20063;-84
2021/10/19 03:14:27;;;;;;;3.63;2.83;;;10.10;99.90;;;;;;6087018;29;20024;-84
2021/10/19 03:17:28;;;;;;;3.80;2.78;;;;;;;;;;6101940;29;20103;-84
2021/10/19 03:20:30;;;;;;;3.70;2.80;;;;;;;;;;6120588;29;20039;-84
2021/10/19 03:23:31;;;;;;;3.78;2.85;;;;;;;;;;6086905;29;20024;-84
2021/10/19 03:26:32;;;;;;;3.55;2.80;;;;;;;;;;6103285;29;20100;-85
2021/10/19 03:29:33;;;;;;;4.10;2.53;;;;;;;;;;6104046;29;20473;-86
2021/10/19 03:32:34;;;;;;;4.18;3.17;;;;;;;;;;6092733;29;20032;-85
2021/10/19 03:35:35;;;;;;;3.97;2.97;;;;;;;;;;6108311;29;20062;-83
2021/10/19 03:38:37;;;;;;;5.78;2.85;;;9.70;99.90;;;;;;6104244;29;20459;-84
2021/10/19 03:41:37;;;;;;;2.70;2.42;;;9.70;99.90;;;;;;6108420;29;20036;-84
2021/10/19 03:44:38;;;;;;;3.55;2.72;;;;;;;;;;6107781;29;20562;-84
2021/10/19 03:47:39;;;;;;;2.97;2.67;;;;;;;;;;6124181;29;20038;-84
2021/10/19 03:50:40;;;;;;;3.88;2.97;;;9.40;99.90;;;;;;6123763;29;20039;-83
2021/10/19 03:53:41;;;;;;;5.47;3.30;;;;;;;;;;6097041;29;20163;-85
2021/10/19 03:56:42;;;;;;;3.17;2.63;;;;;;;;;;6092742;29;20067;-83
2021/10/19 03:59:43;;;;;;;3.33;2.92;;;;;;;;;;6100831;29;20051;-84
2021/10/19 04:02:44;;;;;;;4.68;2.88;;;;;;;;;;6085682;29;20060;-84
2021/10/19 04:05:45;;;;;;;3.72;3.17;;;;;;;;;;6100952;29;20364;-84
2021/10/19 04:08:46;;;;;;;3.45;3.15;;;;;;;;;;6100999;29;20028;-83
2021/10/19 04:11:47;;;;;;;3.17;2.80;;;;;;;;;;6100553;29;20052;-83
2021/10/19 04:14:47;;;;;;;4.22;3.22;;;9.70;99.90;;;;;;6085180;29;20036;-84
2021/10/19 04:17:48;;;;;;;3.25;2.95;;;;;;;;;;6103234;29;20067;-84
2021/10/19 04:20:49;;;;;;;4.72;3.22;;;;;;;;;;6107458;29;20051;-84
2021/10/19 04:23:50;;;;;;;13.60;5.50;;;;;;;;;;6123278;29;20047;-83
2021/10/19 04:26:51;;;;;;;5.50;3.72;;;;;;;;;;6105437;29;20030;-84
2021/10/19 04:29:52;;;;;;;7.57;3.47;;;10.10;99.90;;;;;;6099696;29;20039;-83
2021/10/19 04:32:53;;;;;;;14.88;9.35;;;;;;;;;;6099956;29;20490;-83
2021/10/19 04:35:54;;;;;;;7.43;5.22;;;;;;;;;;6106721;29;20382;-84
2021/10/19 04:38:55;;;;;;;14.63;11.32;;;;;;;;;;6103388;29;20040;-83
2021/10/19 04:41:55;;;;;;;12.70;9.70;;;9.80;99.90;;;;;;6100203;29;20441;-84
2021/10/19 04:44:56;;;;;;;24.58;17.90;;;10.00;99.90;;;;;;6109030;29;20038;-83
2021/10/19 04:47:57;;;;;;;6.30;5.10;;;;;;;;;;6087590;29;20039;-82
2021/10/19 04:50:58;;;;;;;7.53;5.63;;;9.70;99.90;;;;;;6099075;29;20075;-82
2021/10/19 04:53:59;;;;;;;8.02;6.40;;;;;;;;;;6086210;29;20043;-84
2021/10/19 04:57:00;;;;;;;4.35;3.70;;;;;;;;;;6086771;29;20594;-83
2021/10/19 05:00:00;;;;;;;5.50;4.25;;;10.00;99.90;;;;;;6099835;29;20151;-84
2021/10/19 05:03:01;;;;;;;4.68;3.55;;;;;;;;;;6099472;29;20034;-82
2021/10/19 05:06:02;;;;;;;4.00;3.25;;;;;;;;;;6110547;29;20056;-81
2021/10/19 05:09:03;;;;;;;4.75;3.40;;;;;;;;;;6098435;29;20044;-82
2021/10/19 05:12:05;;;;;;;4.18;3.22;;;10.40;99.90;;;;;;6099644;29;20091;-81
2021/10/19 05:15:06;;;;;;;4.53;3.05;;;10.50;99.90;;;;;;6082496;29;20032;-82
2021/10/19 05:18:07;;;;;;;3.75;3.22;;;;;;;;;;6082013;29;20151;-83
2021/10/19 05:21:08;;;;;;;5.45;3.70;;;;;;;;;;6114813;29;20431;-82
2021/10/19 05:24:08;;;;;;;5.95;3.38;;;10.20;99.90;;;;;;6087897;29;20024;-82
2021/10/19 05:27:09;;;;;;;4.65;3.47;;;;;;;;;;6098197;29;20466;-83
2021/10/19 05:30:10;;;;;;;4.20;3.63;;;10.60;99.90;;;;;;6082152;29;20038;-84
2021/10/19 05:33:11;;;;;;;4.80;3.50;;;10.40;99.90;;;;;;6081335;29;20463;-81
2021/10/19 05:36:12;;;;;;;5.88;3.20;;;10.40;99.90;;;;;;6097424;29;20032;-81
2021/10/19 05:39:15;;;;;;;4.75;4.00;;;;;;;;;;6098893;29;20094;-79
2021/10/19 05:42:15;;;;;;;7.00;3.33;;;10.30;99.90;;;;;;6099336;29;20032;-81
2021/10/19 05:45:19;;;;;;;4.65;3.55;;;;;;;;;;6105668;29;20035;-86
2021/10/19 05:48:20;;;;;;;3.88;2.90;;;;;;;;;;6101175;29;20390;-81
2021/10/19 05:51:21;;;;;;;5.28;3.35;;;;;;;;;;6098340;29;20080;-83
2021/10/19 05:54:23;;;;;;;4.97;3.55;;;10.90;99.90;;;;;;6107787;29;20039;-85
2021/10/19 05:57:24;;;;;;;7.00;4.10;;;;;;;;;;6097986;29;20046;-87
2021/10/19 06:00:25;;;;;;;5.07;3.65;;;;;;;;;;6083578;29;20506;-84
2021/10/19 06:03:25;;;;;;;8.48;4.03;;;10.80;99.90;;;;;;6112943;29;20100;-84
2021/10/19 06:06:26;;;;;;;7.35;4.28;;;;;;;;;;6090910;29;20044;-83
2021/10/19 06:09:28;;;;;;;7.36;4.70;;;10.90;99.90;;;;;;6085871;29;1184698;-83
2021/10/19 06:12:29;;;;;;;6.95;4.25;;;10.90;99.90;;;;;;6116258;29;20596;-83
2021/10/19 06:15:29;;;;;;;4.88;4.18;;;10.70;99.90;;;;;;6120028;29;20032;-82
2021/10/19 06:18:30;;;;;;;6.63;4.30;;;10.90;99.90;;;;;;6088081;29;20044;-83
2021/10/19 06:21:30;;;;;;;5.97;4.20;;;10.80;99.90;;;;;;6109639;29;20025;-83
2021/10/19 06:24:31;;;;;;;4.47;3.85;;;;;;;;;;6124155;29;20034;-83
2021/10/19 06:27:33;;;;;;;7.93;4.63;;;11.00;99.90;;;;;;6126229;29;20174;-83
2021/10/19 06:30:34;;;;;;;7.78;4.53;;;11.00;99.90;;;;;;6125069;29;20035;-85
2021/10/19 06:33:36;;;;;;;5.38;4.20;;;;;;;;;;6105807;29;20107;-83
2021/10/19 06:36:37;;;;;;;5.13;4.57;;;11.10;99.90;;;;;;6103064;29;20055;-83
2021/10/19 06:39:38;;;;;;;5.63;4.57;;;;;;;;;;6102825;29;20528;-83
2021/10/19 06:42:38;;;;;;;5.15;4.18;;;11.50;99.90;;;;;;6102579;29;20489;-83
2021/10/19 06:45:39;;;;;;;11.10;4.18;;;;;;;;;;6102671;29;20087;-83
2021/10/19 06:48:40;;;;;;;5.72;4.15;;;11.60;99.90;;;;;;6103628;29;20039;-83
2021/10/19 06:51:40;;;;;;;6.00;4.20;;;11.70;99.90;;;;;;6104155;29;20028;-82
2021/10/19 06:54:41;;;;;;;4.57;3.97;;;;;;;;;;6102647;29;20032;-82
2021/10/19 06:57:43;;;;;;;5.90;3.90;;;11.70;99.90;;;;;;6120150;29;20023;-83
2021/10/19 07:00:44;;;;;;;5.83;4.20;;;;;;;;;;6124615;29;20030;-83
2021/10/19 07:03:45;;;;;;;11.32;7.85;;;;;;;;;;6124786;29;20379;-83
2021/10/19 07:06:46;;;;;;;4.88;4.25;;;11.60;99.90;;;;;;6121286;29;20124;-82
2021/10/19 07:09:46;;;;;;;7.03;4.93;;;12.00;99.90;;;;;;6101754;29;20059;-83
2021/10/19 07:12:48;;;;;;;4.95;3.92;;;;;;;;;;6102433;29;20418;-83
2021/10/19 07:15:50;;;;;;;6.78;5.60;;;12.10;99.90;;;;;;6086181;29;20038;-83
2021/10/19 07:18:51;;;;;;;8.70;6.75;;;;;;;;;;6086245;29;20040;-83
2021/10/19 07:21:52;;;;;;;5.28;3.78;;;;;;;;;;6101940;29;20028;-82
2021/10/19 07:24:52;;;;;;;6.25;4.28;;;12.00;99.90;;;;;;6101937;29;20059;-82
2021/10/19 07:27:53;;;;;;;6.00;4.53;;;12.20;99.90;;;;;;6101557;29;20043;-82
2021/10/19 07:30:54;;;;;;;8.75;5.28;;;12.20;99.90;;;;;;6101536;29;20386;-83
2021/10/19 07:33:55;;;;;;;7.47;3.90;;;12.40;99.90;;;;;;6101528;29;20035;-82
2021/10/19 07:36:57;;;;;;;5.55;4.50;;;;;;;;;;6101781;29;20474;-83
2021/10/19 07:39:58;;;;;;;;;;;12.40;99.90;;;;;;6102098;29;20039;-82
2021/10/19 07:42:59;;;;;;;8.38;5.03;;;;;;;;;;6102556;29;19954;-82
2021/10/19 07:46:00;;;;;;;5.78;4.70;;;;;;;;;;6102662;29;20543;-83
2021/10/19 07:49:01;;;;;;;8.70;5.22;;;12.60;99.90;;;;;;6102379;29;20499;-83
2021/10/19 07:52:02;;;;;;;5.60;4.40;;;13.00;99.90;;;;;;6101228;29;20032;-83
2021/10/19 07:55:03;;;;;;;6.20;4.93;;;12.70;99.90;;;;;;6100951;29;20538;-83
2021/10/19 07:58:04;;;;;;;6.82;5.10;;;;;;;;;;6112796;29;20054;-83
2021/10/19 08:01:05;;;;;;;5.70;4.60;;;12.70;99.90;;;;;;6124007;29;20059;-83
2021/10/19 08:04:06;;;;;;;5.75;4.60;;;;;;;;;;6124163;29;20028;-82
2021/10/19 08:07:07;;;;;;;5.22;4.30;;;;;;;;;;6101192;29;20091;-83
2021/10/19 08:10:08;;;;;;;5.20;4.68;;;12.90;99.90;;;;;;6100459;29;20083;-83
2021/10/19 08:13:09;;;;;;;6.93;4.90;;;12.90;99.90;;;;;;6107122;29;20043;-82
2021/10/19 08:16:10;;;;;;;7.07;4.97;;;12.70;99.90;;;;;;6100568;29;20032;-82
2021/10/19 08:19:11;;;;;;;6.45;4.20;;;;;;;;;;6102115;29;20052;-83
2021/10/19 08:22:13;;;;;;;6.57;4.10;;;13.10;99.90;;;;;;6123261;29;20421;-83
2021/10/19 08:25:13;;;;;;;6.63;4.70;;;13.00;99.90;;;;;;6123005;29;20023;-82
2021/10/19 08:28:19;;;;;;;7.63;4.60;;;13.30;99.90;;;;;;6122938;29;20106;-83
2021/10/19 08:31:21;;;;;;;11.27;7.35;;;13.20;99.90;;;;;;6123131;29;20031;-82
2021/10/19 08:34:21;;;;;;;6.70;5.18;;;13.40;99.90;;;;;;6122459;29;20032;-83
2021/10/19 08:37:22;;;;;;;4.13;3.72;;;13.30;99.90;;;;;;6106908;29;20059;-82
2021/10/19 08:40:22;;;;;;;6.10;3.72;;;13.50;99.90;;;;;;6122812;29;20047;-83
2021/10/19 08:43:23;;;;;;;4.80;4.25;;;;;;;;;;6121911;29;20063;-83
2021/10/19 08:46:24;;;;;;;6.55;5.85;;;;;;;;;;6122708;29;20024;-82
2021/10/19 08:49:25;;;;;;;5.05;4.03;;;;;;;;;;6113323;29;20605;-83
2021/10/19 08:52:27;;;;;;;5.72;4.28;;;;;;;;;;6100268;29;20032;-82
2021/10/19 08:55:28;;;;;;;8.45;5.30;;;;;;;;;;6099931;29;20514;-83
2021/10/19 08:58:29;;;;;;;6.40;4.63;;;;;;;;;;6112704;29;20044;-82
2021/10/19 09:01:34;;;;;;;7.03;4.60;;;14.00;99.90;;;;;;6122871;29;20035;-82
2021/10/19 09:04:35;;;;;;;5.70;4.63;;;14.30;99.90;;;;;;6122407;29;20027;-83
2021/10/19 09:07:36;;;;;;;6.18;5.55;;;;;;;;;;6122464;29;20434;-82
2021/10/19 09:10:40;;;;;;;5.93;4.85;;;14.00;99.90;;;;;;6105789;29;20059;-83
2021/10/19 09:13:53;;;;;;;5.78;4.10;;;14.00;99.90;;;;;;6123885;29;20387;-83
2021/10/19 09:16:56;;;;;;;5.60;4.28;;;;;;;;;;6121895;29;20027;-82
2021/10/19 09:19:58;;;;;;;8.00;7.15;;;14.20;99.90;;;;;;6122003;29;20038;-83
2021/10/19 09:23:00;;;;;;;5.43;4.88;;;14.30;99.90;;;;;;6121480;29;20028;-83
2021/10/19 09:26:03;;;;;;;4.38;3.95;;;14.40;99.90;;;;;;6121785;29;20027;-83
2021/10/19 09:29:09;;;;;;;;;;;14.00;99.90;;;;;;6121869;29;20020;-83
2021/10/19 09:32:12;;;;;;;6.38;4.68;;;14.60;99.90;;;;;;6121939;29;20404;-83
2021/10/19 09:35:22;;;;;;;5.13;4.63;;;14.50;99.90;;;;;;6121341;29;20054;-83
2021/10/19 09:38:22;;;;;;;5.88;5.28;;;14.50;99.90;;;;;;6121490;29;20616;-83
2021/10/19 09:41:23;;;;;;;6.80;3.80;;;14.60;99.90;;;;;;6087040;29;20032;-83
2021/10/19 09:44:24;;;;;;;4.10;3.42;;;14.60;99.90;;;;;;6099280;29;20083;-83
2021/10/19 09:47:25;;;;;;;5.15;4.38;;;14.60;99.90;;;;;;6104739;29;20028;-83
2021/10/19 09:50:27;;;;;;;5.25;4.20;;;14.60;99.90;;;;;;6083487;29;20039;-83
2021/10/19 09:53:28;;;;;;;7.10;4.50;;;14.60;99.90;;;;;;6098841;29;20514;-83
2021/10/19 09:56:29;;;;;;;6.15;4.70;;;14.70;99.90;;;;;;6098801;29;20036;-84
2021/10/19 09:59:30;;;;;;;6.45;5.63;;;14.80;99.90;;;;;;6098673;29;20040;-83
2021/10/19 10:02:30;;;;;;;7.70;6.90;;;14.90;99.90;;;;;;6117549;29;20087;-82
2021/10/19 10:05:32;;;;;;;5.72;4.30;;;14.90;99.90;;;;;;6113468;29;20423;-83
2021/10/19 10:08:32;;;;;;;9.50;4.50;;;15.00;99.90;;;;;;6098276;29;20036;-83
2021/10/19 10:11:33;;;;;;;5.30;4.30;;;15.00;99.90;;;;;;6097932;29;20098;-83
2021/10/19 10:15:00;;;;;;;7.22;4.93;;;15.10;99.90;;;;;;6098389;29;20414;-83
2021/10/19 10:18:02;;;;;;;5.10;4.20;;;15.00;99.90;;;;;;6080721;29;20041;-83
2021/10/19 10:21:20;;;;;;;5.32;4.22;;;15.80;99.90;;;;;;6082568;29;20059;-82
2021/10/19 10:24:31;;;;;;;5.38;4.38;;;15.30;99.90;;;;;;6098037;29;20031;-83
2021/10/19 10:27:32;;;;;;;6.70;4.83;;;15.30;99.90;;;;;;6120441;29;20023;-83
2021/10/19 10:30:36;;;;;;;17.60;7.35;;;15.30;99.90;;;;;;6120740;29;20260;-83
2021/10/19 10:33:38;;;;;;;7.70;4.95;;;15.40;99.90;;;;;;6107232;29;20118;-83
2021/10/19 10:36:42;;;;;;;5.53;3.90;;;15.40;99.90;;;;;;6120979;29;20040;-83
2021/10/19 10:39:45;;;;;;;7.10;3.83;;;15.50;99.90;;;;;;6120214;29;20126;-83
2021/10/19 10:42:45;;;;;;;5.80;4.32;;;15.60;99.90;;;;;;6120837;29;20038;-83
2021/10/19 10:45:47;;;;;;;8.50;5.55;;;;;;;;;;6120262;29;21196;-82
2021/10/19 10:48:47;;;;;;;5.57;3.72;;;15.80;99.90;;;;;;6120191;29;20471;-83
2021/10/19 10:51:49;;;;;;;7.78;4.50;;;15.70;99.90;;;;;;6103734;29;20043;-83
2021/10/19 10:54:54;;;;;;;6.13;3.63;;;15.80;99.90;;;;;;6097928;29;20032;-83
2021/10/19 10:57:55;;;;;;;6.10;4.10;;;16.10;99.90;;;;;;6082273;29;20466;-83
2021/10/19 11:00:55;;;;;;;4.97;3.80;;;15.90;99.90;;;;;;6098108;29;20118;-83
2021/10/19 11:04:10;;;;;;;7.07;4.97;;;16.00;99.90;;;;;;6098216;29;20036;-83
2021/10/19 11:07:11;;;;;;;5.20;4.38;;;15.90;99.90;;;;;;6121068;29;20059;-83
2021/10/19 11:10:16;;;;;;;7.87;4.43;;;16.00;99.90;;;;;;6110689;29;20048;-83
2021/10/19 11:13:16;;;;;;;7.82;4.35;;;16.10;99.90;;;;;;6102246;29;20043;-83
2021/10/19 11:16:17;;;;;;;6.13;4.00;;;16.10;99.90;;;;;;6104033;29;20028;-83
2021/10/19 11:19:25;;;;;;;4.90;3.90;;;15.90;99.90;;;;;;6107584;29;20048;-83
2021/10/19 11:22:26;;;;;;;7.68;4.60;;;16.10;99.90;;;;;;6101853;29;20024;-83
2021/10/19 11:25:26;;;;;;;6.60;4.40;;;16.10;99.90;;;;;;6102020;29;20565;-83
2021/10/19 11:28:27;;;;;;;6.53;4.47;;;16.10;99.90;;;;;;6108392;29;20039;-83
2021/10/19 11:31:29;;;;;;;5.75;3.92;;;16.10;99.90;;;;;;6123745;29;20060;-83
2021/10/19 11:34:29;;;;;;;5.20;4.05;;;16.00;99.90;;;;;;6124329;29;20036;-83
2021/10/19 11:37:30;;;;;;;4.68;3.60;;;16.10;99.90;;;;;;6124292;29;20059;-83
2021/10/19 11:40:30;;;;;;;4.05;3.25;;;16.10;99.90;;;;;;6123789;29;20111;-83
2021/10/19 11:43:31;;;;;;;4.10;2.90;;;16.10;99.90;;;;;;6108282;29;20035;-83
2021/10/19 11:46:35;;;;;;;4.22;3.13;;;16.00;99.90;;;;;;6124067;29;20032;-83
2021/10/19 11:49:39;;;;;;;4.57;3.25;;;16.10;99.90;;;;;;6124016;29;20147;-82
2021/10/19 11:52:39;;;;;;;5.93;3.90;;;16.00;99.90;;;;;;6123690;29;20027;-83
2021/10/19 11:55:40;;;;;;;3.97;3.28;;;16.00;99.90;;;;;;6124011;29;20039;-83
2021/10/19 11:59:03;;;;;;;5.78;4.15;;;16.10;99.90;;;;;;6121461;29;20079;-85
2021/10/19 12:02:06;;;;;;;5.55;3.95;;;16.10;99.90;;;;;;6099933;29;20067;-84
2021/10/19 12:05:07;;;;;;;5.65;3.55;;;16.10;99.90;;;;;;6109855;29;20029;-84
2021/10/19 12:08:09;;;;;;;6.03;3.90;;;16.40;99.90;;;;;;6096445;29;20425;-83
2021/10/19 12:11:11;;;;;;;5.88;3.78;;;16.30;99.90;;;;;;6099975;29;20531;-84
2021/10/19 12:14:12;;;;;;;5.95;4.07;;;;;;;;;;6107189;29;20099;-84
2021/10/19 12:17:12;;;;;;;4.47;3.63;;;16.50;99.90;;;;;;6106815;29;20028;-87
2021/10/19 12:20:13;;;;;;;5.68;3.92;;;14.10;99.90;;;;;;6092069;29;20484;-83
2021/10/19 12:23:14;;;;;;;5.00;4.50;;;16.40;99.90;;;;;;6100954;29;20032;-83
2021/10/19 12:26:17;;;;;;;4.20;3.80;;;16.60;99.90;;;;;;6100383;29;20032;-83
2021/10/19 12:29:18;;;;;;;6.47;3.92;;;16.40;99.90;;;;;;6093588;29;20485;-86
2021/10/19 12:32:19;;;;;;;6.20;4.45;;;16.50;99.90;;;;;;6115806;29;20039;-85
2021/10/19 12:35:19;;;;;;;6.25;5.05;;;16.50;99.90;;;;;;6107088;29;20066;-85
2021/10/19 12:38:24;;;;;;;5.70;4.60;;;16.70;99.90;;;;;;6122350;29;20557;-84
2021/10/19 12:41:25;;;;;;;5.10;4.28;;;16.70;99.90;;;;;;6123163;29;20034;-85
2021/10/19 12:44:26;;;;;;;5.35;4.03;;;16.70;99.90;;;;;;6122754;29;20166;-84
2021/10/19 12:47:27;;;;;;;5.13;4.00;;;16.70;99.90;;;;;;6123905;29;20024;-84
2021/10/19 12:50:27;;;;;;;5.40;3.75;;;16.80;99.90;;;;;;6122963;29;20110;-84
2021/10/19 12:53:28;;;;;;;4.88;3.63;;;16.90;99.90;;;;;;6122005;29;20078;-85
2021/10/19 12:56:30;;;;;;;4.35;3.70;;;16.90;99.90;;;;;;6115011;29;20040;-85
2021/10/19 12:59:31;;;;;;;6.25;3.65;;;17.10;99.90;;;;;;6083591;29;20553;-85
2021/10/19 13:02:31;;;;;;;5.57;3.97;;;17.00;99.90;;;;;;6099956;29;20044;-85
2021/10/19 13:05:32;;;;;;;5.38;3.60;;;17.20;99.90;;;;;;6099520;29;20032;-84
2021/10/19 13:08:33;;;;;;;4.38;3.90;;;17.10;99.90;;;;;;6115304;29;20031;-84
2021/10/19 13:11:33;;;;;;;5.30;3.60;;;17.60;99.90;;;;;;6121361;29;20052;-85
2021/10/19 13:14:34;;;;;;;5.68;3.70;;;17.30;99.90;;;;;;6122305;29;20434;-84
2021/10/19 13:17:35;;;;;;;4.53;4.07;;;;;;;;;;6121683;29;20114;-84
2021/10/19 13:20:36;;;;;;;5.32;3.83;;;;;;;;;;6099538;29;20060;-84
2021/10/19 13:23:37;;;;;;;5.50;3.88;;;17.60;99.90;;;;;;6103273;29;20035;-83
2021/10/19 13:26:39;;;;;;;4.18;3.55;;;17.50;99.90;;;;;;6103232;29;20032;-84
2021/10/19 13:29:40;;;;;;;5.88;4.30;;;17.60;99.90;;;;;;6107901;29;20047;-84
2021/10/19 13:32:41;;;;;;;4.13;3.72;;;17.70;99.90;;;;;;6090788;29;20128;-83
2021/10/19 13:35:42;;;;;;;7.05;5.03;;;17.80;99.90;;;;;;6098903;29;20043;-83
2021/10/19 13:38:42;;;;;;;4.75;3.78;;;18.00;99.90;;;;;;6106500;29;20405;-84
2021/10/19 13:41:45;;;;;;;5.90;4.10;;;;;;;;;;6121256;29;20687;-84
2021/10/19 13:44:46;;;;;;;4.88;3.70;;;18.40;99.90;;;;;;6117746;29;20026;-84
2021/10/19 13:47:46;;;;;;;8.38;4.28;;;18.50;99.90;;;;;;6121705;29;20028;-84
2021/10/19 13:50:48;;;;;;;4.20;3.70;;;18.50;99.90;;;;;;6122351;29;20398;-84
2021/10/19 13:53:48;;;;;;;9.85;4.28;;;18.50;99.90;;;;;;6098632;29;20081;-85
2021/10/19 13:56:49;;;;;;;7.38;4.40;;;18.50;99.90;;;;;;6098787;29;20472;-85
2021/10/19 13:59:50;;;;;;;9.05;4.63;;;18.50;99.90;;;;;;6098441;29;20458;-83
2021/10/19 14:02:50;;;;;;;4.75;3.80;;;18.40;99.90;;;;;;6098604;29;20438;-83
2021/10/19 14:05:51;;;;;;;4.10;3.20;;;18.50;99.90;;;;;;6096696;29;20078;-84
2021/10/19 14:08:51;;;;;;;4.70;3.30;;;18.50;99.90;;;;;;6121242;29;20048;-83
2021/10/19 14:11:52;;;;;;;4.25;3.75;;;18.50;99.90;;;;;;6102656;29;20096;-83
2021/10/19 14:14:53;;;;;;;7.57;3.75;;;18.90;99.90;;;;;;6082811;29;20107;-85
2021/10/19 14:17:53;;;;;;;12.23;7.28;;;18.50;99.90;;;;;;6082770;29;20040;-84
2021/10/19 14:20:54;;;;;;;5.75;4.80;;;18.60;99.90;;;;;;6098035;29;20047;-85
2021/10/19 14:23:55;;;;;;;4.95;4.45;;;18.60;99.90;;;;;;6098657;29;20028;-85
2021/10/19 14:26:56;;;;;;;5.32;3.20;;;18.60;99.90;;;;;;6098277;29;20059;-85
2021/10/19 14:29:57;;;;;;;4.00;3.50;;;18.70;99.90;;;;;;6096063;29;20030;-85
2021/10/19 14:32:57;;;;;;;8.30;7.00;;;20.40;99.90;;;;;;6116009;29;20042;-84
2021/10/19 14:35:58;;;;;;;5.55;4.00;;;18.60;99.90;;;;;;6098448;29;20440;-85
2021/10/19 14:38:58;;;;;;;6.07;5.47;;;18.50;99.90;;;;;;6098139;29;20062;-85
2021/10/19 14:42:01;;;;;;;5.70;4.38;;;18.50;99.90;;;;;;6101191;29;20534;-85
2021/10/19 14:45:03;;;;;;;4.50;3.95;;;18.60;99.90;;;;;;6102837;29;20475;-85
2021/10/19 14:48:04;;;;;;;6.00;3.80;;;;;;;;;;6102892;29;20028;-85
2021/10/19 14:51:05;;;;;;;8.37;4.17;;;17.50;99.90;;;;;;6106087;29;20028;-83
2021/10/19 14:54:08;;;;;;;6.75;4.80;;;18.30;99.90;;;;;;6101829;29;20371;-84
2021/10/19 14:57:08;;;;;;;5.60;3.47;;;18.10;99.90;;;;;;6119058;29;20031;-84
2021/10/19 15:00:10;;;;;;;4.88;3.35;;;18.30;99.90;;;;;;6124588;29;20410;-84
2021/10/19 15:03:11;;;;;;;6.65;5.40;;;18.00;99.90;;;;;;6095152;29;20039;-83
2021/10/19 15:06:11;;;;;;;4.55;3.28;;;17.90;99.90;;;;;;6117380;29;20089;-85
2021/10/19 15:09:13;;;;;;;4.95;3.53;;;17.80;99.90;;;;;;6109126;29;20483;-83
2021/10/19 15:12:15;;;;;;;5.80;3.57;;;17.70;99.90;;;;;;6124026;29;20111;-83
2021/10/19 15:15:16;;;;;;;4.40;3.60;;;17.70;99.90;;;;;;6124635;29;20268;-84
2021/10/19 15:18:16;;;;;;;4.50;3.45;;;17.60;99.90;;;;;;6108741;29;20043;-83
2021/10/19 15:21:17;;;;;;;4.35;3.80;;;17.60;99.90;;;;;;6117413;29;20032;-84
2021/10/19 15:24:17;;;;;;;7.22;4.45;;;17.50;99.90;;;;;;6120633;29;20083;-83
2021/10/19 15:27:18;;;;;;;4.57;3.60;;;17.40;99.90;;;;;;6124412;29;20028;-84
2021/10/19 15:30:19;;;;;;;3.60;3.10;;;17.40;99.90;;;;;;6109180;29;20040;-84
2021/10/19 15:33:20;;;;;;;5.78;3.15;;;17.30;99.90;;;;;;6085760;29;20071;-84
2021/10/19 15:36:20;;;;;;;4.63;3.85;;;17.10;99.90;;;;;;6117948;29;20035;-84
2021/10/19 15:39:21;;;;;;;5.43;3.03;;;17.10;99.90;;;;;;6108636;29;20036;-83
2021/10/19 15:42:22;;;;;;;4.03;3.30;;;17.00;99.90;;;;;;6101592;29;20072;-84
2021/10/19 15:45:22;;;;;;;4.00;3.10;;;16.90;99.90;;;;;;6112550;29;20036;-83
2021/10/19 15:48:24;;;;;;;3.88;3.47;;;16.80;99.90;;;;;;6107906;29;20031;-84
2021/10/19 15:51:24;;;;;;;6.13;3.50;;;16.70;99.90;;;;;;6123968;29;20367;-84
2021/10/19 15:54:25;;;;;;;6.28;3.30;;;16.60;99.90;;;;;;6123064;29;20031;-83
2021/10/19 15:57:26;;;;;;;7.75;3.75;;;16.60;99.90;;;;;;6108009;29;20059;-84
2021/10/19 16:00:28;;;;;;;14.68;6.25;;;16.40;99.90;;;;;;6100376;29;20040;-84
2021/10/19 16:03:28;;;;;;;;;;;16.40;99.90;;;;;;6107470;29;20038;-85
2021/10/19 16:06:29;;;;;;;4.97;4.07;;;16.40;99.90;;;;;;6123696;29;20006;-83
2021/10/19 16:09:31;;;;;;;5.72;3.00;;;16.30;99.90;;;;;;6116678;29;20031;-84
2021/10/19 16:12:32;;;;;;;5.57;4.40;;;16.00;99.90;;;;;;6109337;29;20050;-84
2021/10/19 16:15:32;;;;;;;4.40;3.45;;;15.90;99.90;;;;;;6116561;29;20645;-83
2021/10/19 16:18:33;;;;;;;4.38;3.60;;;;;;;;;;6105762;29;20079;-85
2021/10/19 16:21:35;;;;;;;5.80;3.85;;;15.60;99.90;;;;;;6107012;29;20453;-86
2021/10/19 16:24:35;;;;;;;5.18;4.47;;;15.60;99.90;;;;;;6109526;29;20028;-85
2021/10/19 16:27:40;;;;;;;4.97;4.13;;;15.40;99.90;;;;;;6118805;29;20067;-83